createdAt,value
2022-07-28T00:01:01.846Z,94.80
2022-07-28T00:03:58.710Z,94.90
2022-07-28T00:06:55.536Z,95.20
2022-07-28T00:09:58.263Z,93.30
2022-07-28T00:12:57.232Z,94.50
2022-07-28T00:15:54.167Z,93.60
2022-07-28T00:18:51.052Z,92.40
2022-07-28T00:21:48.255Z,93.00
2022-07-28T00:24:45.253Z,93.10
2022-07-28T00:27:42.173Z,94.70
2022-07-28T00:30:39.164Z,94.80
2022-07-28T00:33:37.118Z,95.20
2022-07-28T00:36:33.989Z,92.70
2022-07-28T00:39:30.845Z,94.10
2022-07-28T00:42:27.709Z,94.20
2022-07-28T00:45:24.572Z,95.10
2022-07-28T00:48:21.427Z,94.60
2022-07-28T00:51:21.551Z,94.40
2022-07-28T00:54:18.468Z,94.80
2022-07-28T00:57:15.338Z,94.80
2022-07-28T01:00:12.675Z,94.50
2022-07-28T01:03:10.443Z,94.60
2022-07-28T01:06:17.589Z,94.90
2022-07-28T01:09:50.220Z,95.40
2022-07-28T01:13:04.089Z,95.30
2022-07-28T01:16:05.268Z,94.00
2022-07-28T01:19:09.913Z,95.60
2022-07-28T01:22:11.197Z,96.00
2022-07-28T01:25:23.465Z,95.00
2022-07-28T01:28:59.292Z,95.00
2022-07-28T01:32:13.370Z,94.00
2022-07-28T01:35:19.540Z,94.30
2022-07-28T01:38:18.983Z,94.30
2022-07-28T01:41:21.177Z,93.60
2022-07-28T01:44:23.089Z,94.40
2022-07-28T01:47:23.808Z,93.40
2022-07-28T01:50:23.950Z,93.30
2022-07-28T01:53:22.707Z,94.90
2022-07-28T01:56:21.610Z,93.60
2022-07-28T01:59:19.321Z,93.00
2022-07-28T02:02:18.795Z,94.00
2022-07-28T02:05:22.157Z,94.10
2022-07-28T02:08:22.497Z,93.30
2022-07-28T02:11:37.812Z,94.50
2022-07-28T02:14:36.410Z,94.40
2022-07-28T02:17:35.180Z,93.90
2022-07-28T02:20:32.578Z,93.20
2022-07-28T02:23:29.902Z,93.50
2022-07-28T02:26:35.367Z,92.50
2022-07-28T02:29:51.901Z,93.60
2022-07-28T02:32:53.901Z,92.10
2022-07-28T02:35:57.574Z,93.30
2022-07-28T02:39:02.642Z,93.70
2022-07-28T02:42:07.269Z,92.60
2022-07-28T02:45:08.354Z,94.90
2022-07-28T02:48:14.796Z,94.00
2022-07-28T02:51:13.773Z,92.30
2022-07-28T02:54:12.389Z,93.80
2022-07-28T02:57:12.338Z,94.40
2022-07-28T03:00:11.230Z,94.40
2022-07-28T03:03:09.803Z,95.00
2022-07-28T03:06:06.813Z,94.40
2022-07-28T03:09:04.218Z,93.80
2022-07-28T03:12:04.747Z,93.00
2022-07-28T03:15:01.594Z,92.40
2022-07-28T03:18:00.841Z,94.10
2022-07-28T03:20:58.372Z,94.50
2022-07-28T03:23:55.846Z,92.80
2022-07-28T03:27:07.537Z,94.00
2022-07-28T03:30:11.441Z,94.30
2022-07-28T03:33:08.446Z,93.60
2022-07-28T03:36:15.469Z,94.00
2022-07-28T03:39:15.739Z,94.00
2022-07-28T03:42:15.748Z,95.40
2022-07-28T03:45:13.493Z,94.10
2022-07-28T03:48:10.355Z,94.70
2022-07-28T03:51:07.215Z,95.70
2022-07-28T03:54:04.281Z,95.80
2022-07-28T03:57:01.220Z,93.20
2022-07-28T03:59:58.046Z,93.40
2022-07-28T04:02:54.932Z,94.30
2022-07-28T04:05:51.946Z,94.30
2022-07-28T04:08:48.778Z,94.30
2022-07-28T04:11:45.948Z,93.90
2022-07-28T04:14:42.772Z,93.30
2022-07-28T04:17:39.686Z,93.20
2022-07-28T04:20:36.615Z,93.80
2022-07-28T04:23:33.659Z,94.50
2022-07-28T04:26:30.771Z,93.40
2022-07-28T04:29:27.760Z,92.80
2022-07-28T04:32:24.714Z,92.20
2022-07-28T04:35:24.244Z,93.10
2022-07-28T04:38:21.138Z,91.10
2022-07-28T04:41:18.064Z,92.30
2022-07-28T04:44:17.284Z,92.40
2022-07-28T04:47:14.603Z,94.60
2022-07-28T04:50:15.162Z,94.10
2022-07-28T04:53:12.860Z,92.40
2022-07-28T04:56:10.078Z,92.40
2022-07-28T04:59:07.187Z,93.20
2022-07-28T05:02:04.400Z,93.70
2022-07-28T05:05:01.307Z,92.10
2022-07-28T05:07:58.252Z,91.70
2022-07-28T05:10:56.377Z,91.30
2022-07-28T05:13:53.351Z,91.30
2022-07-28T05:16:50.278Z,92.70
2022-07-28T05:19:47.154Z,91.70
2022-07-28T05:22:50.938Z,91.10
2022-07-28T05:25:47.932Z,90.80
2022-07-28T05:28:44.860Z,91.40
2022-07-28T05:31:41.845Z,90.90
2022-07-28T05:34:38.811Z,91.80
2022-07-28T05:37:37.164Z,91.10
2022-07-28T05:40:34.040Z,91.50
2022-07-28T05:43:30.929Z,90.70
2022-07-28T05:46:28.490Z,91.10
2022-07-28T05:49:25.450Z,91.40
2022-07-28T05:52:22.324Z,91.20
2022-07-28T05:55:19.498Z,91.80
2022-07-28T05:58:16.494Z,90.50
2022-07-28T06:01:13.395Z,91.40
2022-07-28T06:04:26.581Z,90.30
2022-07-28T06:07:42.874Z,90.80
2022-07-28T06:10:58.994Z,90.70
2022-07-28T06:13:55.854Z,90.60
2022-07-28T06:16:52.797Z,90.30
2022-07-28T06:19:49.667Z,90.40
2022-07-28T06:22:49.695Z,90.90
2022-07-28T06:25:47.926Z,91.00
2022-07-28T06:28:44.946Z,90.70
2022-07-28T06:31:41.832Z,90.30
2022-07-28T06:34:38.820Z,88.60
2022-07-28T06:37:35.706Z,90.20
2022-07-28T06:40:33.039Z,88.30
2022-07-28T06:43:30.617Z,89.60
2022-07-28T06:46:27.664Z,89.20
2022-07-28T06:49:24.685Z,91.10
2022-07-28T06:52:22.153Z,90.00
2022-07-28T06:55:19.030Z,90.00
2022-07-28T06:58:16.010Z,87.00
2022-07-28T07:01:14.742Z,88.60
2022-07-28T07:04:11.943Z,86.60
2022-07-28T07:07:14.902Z,90.20
2022-07-28T07:10:14.241Z,87.50
2022-07-28T07:13:11.141Z,87.40
2022-07-28T07:16:10.834Z,87.20
2022-07-28T07:19:10.448Z,85.20
2022-07-28T07:22:09.479Z,86.00
2022-07-28T07:25:14.968Z,84.80
2022-07-28T07:28:11.929Z,86.30
2022-07-28T07:31:08.906Z,85.50
2022-07-28T07:34:06.544Z,85.50
2022-07-28T07:37:03.379Z,86.60
2022-07-28T07:40:01.615Z,86.20
2022-07-28T07:42:58.502Z,84.30
2022-07-28T07:45:55.347Z,85.20
2022-07-28T07:48:52.277Z,86.20
2022-07-28T07:51:49.152Z,85.90
2022-07-28T07:54:46.168Z,83.70
2022-07-28T07:57:44.260Z,87.30
2022-07-28T08:00:41.084Z,84.80
2022-07-28T08:03:38.008Z,84.50
2022-07-28T08:06:36.250Z,83.30
2022-07-28T08:09:36.695Z,86.10
2022-07-28T08:12:33.991Z,84.50
2022-07-28T08:15:31.159Z,84.60
2022-07-28T08:18:28.001Z,86.50
2022-07-28T08:21:26.285Z,83.50
2022-07-28T08:24:32.647Z,80.70
2022-07-28T08:27:30.759Z,81.30
2022-07-28T08:30:32.420Z,82.70
2022-07-28T08:33:30.493Z,79.00
2022-07-28T08:36:28.136Z,81.90
2022-07-28T08:39:24.976Z,82.10
2022-07-28T08:43:00.758Z,80.30
2022-07-28T08:46:01.234Z,83.70
2022-07-28T08:48:58.384Z,81.60
2022-07-28T08:51:57.936Z,80.00
2022-07-28T08:54:57.973Z,76.10
2022-07-28T08:57:58.665Z,77.20
2022-07-28T09:00:55.743Z,79.10
2022-07-28T09:03:52.845Z,74.30
2022-07-28T09:06:49.783Z,74.90
2022-07-28T09:09:49.606Z,72.50
2022-07-28T09:12:46.750Z,81.00
2022-07-28T09:15:46.380Z,75.40
2022-07-28T09:18:43.330Z,69.60
2022-07-28T09:21:43.147Z,70.90
2022-07-28T09:24:44.506Z,70.30
2022-07-28T09:27:45.032Z,74.40
2022-07-28T09:30:53.929Z,72.90
2022-07-28T09:34:09.133Z,72.20
2022-07-28T09:37:06.072Z,72.40
2022-07-28T09:40:14.749Z,71.30
2022-07-28T09:43:11.682Z,66.60
2022-07-28T09:46:17.697Z,68.60
2022-07-28T09:49:14.837Z,67.90
2022-07-28T09:52:12.420Z,70.60
2022-07-28T09:55:11.760Z,65.30
2022-07-28T09:58:11.552Z,64.60
2022-07-28T10:01:15.606Z,63.00
2022-07-28T10:04:13.381Z,65.80
2022-07-28T10:07:15.736Z,62.80
2022-07-28T10:10:12.578Z,63.00
2022-07-28T10:13:09.632Z,67.20
2022-07-28T10:16:13.078Z,63.50
2022-07-28T10:19:10.068Z,63.80
2022-07-28T10:22:08.170Z,66.10
2022-07-28T10:25:12.514Z,63.40
2022-07-28T10:28:11.509Z,63.50
2022-07-28T10:31:14.335Z,64.00
2022-07-28T10:34:24.657Z,61.60
2022-07-28T10:37:25.556Z,61.00
2022-07-28T10:40:26.597Z,59.70
2022-07-28T10:43:26.462Z,57.00
2022-07-28T10:46:24.735Z,58.30
2022-07-28T10:49:22.254Z,58.00
2022-07-28T10:56:09.789Z,58.60
2022-07-28T10:59:29.063Z,55.70
2022-07-28T11:02:46.974Z,57.30
2022-07-28T11:05:46.173Z,55.30
2022-07-28T11:08:43.023Z,55.20
2022-07-28T11:11:57.889Z,60.10
2022-07-28T11:14:56.049Z,56.00
2022-07-28T11:18:08.799Z,56.50
2022-07-28T11:21:07.912Z,57.70
2022-07-28T11:24:08.073Z,56.10
2022-07-28T11:27:04.920Z,55.40
2022-07-28T11:30:01.775Z,56.10
2022-07-28T11:33:00.538Z,52.60
2022-07-28T11:35:59.284Z,53.40
2022-07-28T11:39:26.655Z,54.30
2022-07-28T11:42:34.413Z,55.30
2022-07-28T11:45:38.501Z,57.20
2022-07-28T11:48:40.435Z,54.30
2022-07-28T11:51:40.378Z,52.50
2022-07-28T11:54:51.626Z,55.50
2022-07-28T11:57:52.055Z,54.40
2022-07-28T12:00:50.746Z,52.80
2022-07-28T12:03:55.534Z,53.60
2022-07-28T12:06:53.531Z,54.90
2022-07-28T12:09:51.258Z,51.10
2022-07-28T12:13:00.726Z,57.20
2022-07-28T12:15:57.576Z,56.90
2022-07-28T12:18:55.275Z,53.50
2022-07-28T12:21:56.824Z,53.30
2022-07-28T12:24:58.050Z,55.60
2022-07-28T12:27:56.102Z,53.30
2022-07-28T12:30:53.264Z,52.20
2022-07-28T12:33:53.655Z,50.60
2022-07-28T12:36:51.682Z,50.10
2022-07-28T12:39:51.581Z,48.70
2022-07-28T12:42:53.919Z,51.00
2022-07-28T12:45:50.938Z,54.30
2022-07-28T12:48:48.529Z,49.60
2022-07-28T12:51:45.500Z,47.50
2022-07-28T12:54:42.591Z,49.70
2022-07-28T12:57:52.675Z,46.90
2022-07-28T13:00:51.021Z,48.60
2022-07-28T13:03:53.519Z,54.00
2022-07-28T13:06:56.928Z,48.80
2022-07-28T13:10:11.461Z,51.60
2022-07-28T13:13:09.406Z,48.20
2022-07-28T13:16:17.430Z,49.30
2022-07-28T13:19:21.691Z,46.30
2022-07-28T13:22:30.581Z,48.60
2022-07-28T13:25:28.286Z,45.00
2022-07-28T13:28:28.692Z,48.80
2022-07-28T13:31:25.582Z,46.70
2022-07-28T13:34:22.494Z,51.10
2022-07-28T13:37:19.490Z,44.20
2022-07-28T13:40:17.082Z,46.30
2022-07-28T13:43:13.911Z,41.80
2022-07-28T13:46:10.959Z,47.50
2022-07-28T13:49:07.865Z,45.90
2022-07-28T13:52:07.338Z,48.80
2022-07-28T13:55:10.428Z,48.40
2022-07-28T13:58:10.149Z,45.30
2022-07-28T14:01:07.109Z,45.40
2022-07-28T14:04:04.866Z,47.60
2022-07-28T14:07:01.787Z,48.10
2022-07-28T14:09:58.671Z,51.00
2022-07-28T14:12:56.481Z,46.10
2022-07-28T14:16:02.179Z,48.40
2022-07-28T14:19:02.633Z,45.60
2022-07-28T14:21:59.458Z,47.50
2022-07-28T14:24:56.389Z,49.40
2022-07-28T14:27:54.643Z,45.20
2022-07-28T14:30:51.476Z,46.00
2022-07-28T14:33:53.972Z,46.30
2022-07-28T14:36:53.101Z,44.20
2022-07-28T14:39:49.958Z,47.60
2022-07-28T14:42:46.921Z,45.50
2022-07-28T14:46:00.699Z,44.40
2022-07-28T14:49:00.887Z,47.10
2022-07-28T14:51:59.290Z,44.60
2022-07-28T14:54:57.554Z,45.40
2022-07-28T14:57:55.239Z,45.40
2022-07-28T15:00:52.457Z,46.80
2022-07-28T15:03:49.297Z,47.40
2022-07-28T15:06:47.254Z,49.80
2022-07-28T15:09:50.136Z,47.50
2022-07-28T15:12:47.390Z,48.30
2022-07-28T15:15:44.859Z,46.40
2022-07-28T15:18:41.840Z,49.00
2022-07-28T15:21:40.594Z,44.70
2022-07-28T15:24:37.555Z,44.30
2022-07-28T15:27:34.389Z,45.80
2022-07-28T15:30:31.255Z,45.80
2022-07-28T15:33:30.900Z,45.90
2022-07-28T15:36:30.178Z,46.50
2022-07-28T15:39:27.099Z,45.90
2022-07-28T15:42:27.953Z,46.40
2022-07-28T15:45:25.509Z,44.60
2022-07-28T15:48:23.545Z,45.30
2022-07-28T15:51:25.808Z,46.70
2022-07-28T15:54:22.987Z,47.30
2022-07-28T15:57:19.853Z,46.70
2022-07-28T16:00:17.689Z,49.40
2022-07-28T16:03:14.650Z,47.60
2022-07-28T16:06:11.583Z,47.50
2022-07-28T16:09:08.741Z,45.30
2022-07-28T16:12:05.887Z,46.20
2022-07-28T16:15:10.866Z,45.70
2022-07-28T16:18:07.716Z,47.00
2022-07-28T16:21:08.534Z,46.90
2022-07-28T16:24:07.218Z,47.80
2022-07-28T16:27:04.412Z,46.40
2022-07-28T16:30:03.017Z,46.20
2022-07-28T16:33:00.065Z,47.40
2022-07-28T16:35:56.956Z,46.20
2022-07-28T16:38:53.852Z,46.80
2022-07-28T16:41:52.757Z,46.40
2022-07-28T16:44:49.922Z,46.60
2022-07-28T16:47:46.830Z,47.70
2022-07-28T16:50:46.212Z,47.30
2022-07-28T16:53:43.188Z,45.30
2022-07-28T16:56:40.069Z,47.70
2022-07-28T16:59:41.927Z,46.40
2022-07-28T17:02:45.353Z,45.50
2022-07-28T17:05:42.586Z,46.60
2022-07-28T17:08:39.440Z,45.40
2022-07-28T17:11:36.334Z,47.10
2022-07-28T17:14:33.176Z,47.60
2022-07-28T17:17:30.064Z,48.30
2022-07-28T17:20:26.991Z,47.70
2022-07-28T17:23:23.829Z,47.80
2022-07-28T17:29:37.729Z,48.50
2022-07-28T17:32:34.630Z,47.30
2022-07-28T17:35:35.224Z,48.20
2022-07-28T17:38:33.419Z,47.90
2022-07-28T17:41:30.480Z,48.50
2022-07-28T17:44:27.350Z,47.60
2022-07-28T17:47:35.845Z,47.90
2022-07-28T17:50:33.390Z,48.50
2022-07-28T17:53:30.327Z,47.90
2022-07-28T17:56:27.233Z,48.80
2022-07-28T17:59:26.613Z,48.20
2022-07-28T18:02:34.200Z,49.20
2022-07-28T18:05:33.244Z,47.60
2022-07-28T18:08:30.232Z,47.50
2022-07-28T18:11:27.897Z,49.10
2022-07-28T18:14:29.311Z,48.10
2022-07-28T18:17:26.732Z,49.30
2022-07-28T18:20:24.378Z,48.90
2022-07-28T18:23:21.864Z,48.00
2022-07-28T18:26:18.702Z,49.00
2022-07-28T18:29:15.609Z,48.50
2022-07-28T18:32:12.576Z,49.50
2022-07-28T18:35:10.398Z,48.00
2022-07-28T18:38:07.281Z,49.90
2022-07-28T18:41:04.182Z,49.90
2022-07-28T18:44:01.032Z,50.30
2022-07-28T18:46:57.923Z,49.80
2022-07-28T18:49:58.246Z,50.40
2022-07-28T18:52:55.095Z,51.50
2022-07-28T18:55:52.183Z,52.00
2022-07-28T18:58:51.777Z,52.30
2022-07-28T19:01:48.697Z,53.00
2022-07-28T19:04:47.130Z,52.80
2022-07-28T19:07:43.964Z,53.00
2022-07-28T19:10:40.911Z,53.60
2022-07-28T19:13:37.766Z,53.50
2022-07-28T19:16:34.607Z,53.60
2022-07-28T19:19:33.043Z,54.90
2022-07-28T19:22:29.930Z,54.60
2022-07-28T19:25:28.794Z,54.30
2022-07-28T19:28:25.720Z,54.80
2022-07-28T19:31:22.652Z,54.50
2022-07-28T19:34:19.803Z,53.90
2022-07-28T19:37:17.284Z,54.70
2022-07-28T19:40:14.354Z,54.10
2022-07-28T19:43:11.258Z,54.60
2022-07-28T19:46:10.200Z,54.30
2022-07-28T19:49:07.461Z,54.10
2022-07-28T19:52:04.707Z,53.60
2022-07-28T19:55:01.658Z,53.30
2022-07-28T19:58:01.487Z,54.40
2022-07-28T20:00:58.984Z,54.40
2022-07-28T20:04:01.576Z,54.60
2022-07-28T20:07:01.134Z,55.20
2022-07-28T20:10:00.806Z,56.00
2022-07-28T20:12:57.657Z,56.30
2022-07-28T20:15:54.562Z,56.00
2022-07-28T20:18:52.281Z,55.60
2022-07-28T20:21:49.114Z,55.60
2022-07-28T20:24:46.044Z,56.10
2022-07-28T20:27:43.057Z,55.50
2022-07-28T20:30:40.133Z,55.90
2022-07-28T20:33:37.049Z,56.50
2022-07-28T20:36:37.193Z,56.60
2022-07-28T20:39:45.095Z,56.00
2022-07-28T20:42:43.683Z,55.90
2022-07-28T20:45:40.541Z,55.70
2022-07-28T20:48:37.534Z,55.60
2022-07-28T20:51:34.437Z,56.10
2022-07-28T20:54:32.367Z,55.60
2022-07-28T20:57:29.207Z,56.30
2022-07-28T21:00:26.047Z,56.00
2022-07-28T21:03:22.891Z,56.70
2022-07-28T21:06:19.743Z,56.10
2022-07-28T21:09:17.319Z,55.90
2022-07-28T21:12:14.196Z,56.70
2022-07-28T21:15:11.872Z,57.30
2022-07-28T21:18:09.518Z,56.70
2022-07-28T21:21:06.373Z,56.50
2022-07-28T21:24:03.555Z,56.40
2022-07-28T21:27:00.383Z,56.60
2022-07-28T21:32:52.992Z,56.00
2022-07-28T21:35:50.295Z,55.90
2022-07-28T21:38:47.143Z,55.50
2022-07-28T21:41:43.973Z,57.10
2022-07-28T21:44:40.888Z,57.00
2022-07-28T21:47:37.730Z,55.90
2022-07-28T21:50:37.424Z,56.70
2022-07-28T21:53:34.265Z,57.40
2022-07-28T21:56:34.220Z,57.30
2022-07-28T21:59:31.088Z,58.00
2022-07-28T22:02:28.212Z,57.00
2022-07-28T22:05:26.065Z,57.20
2022-07-28T22:08:24.122Z,58.00
2022-07-28T22:11:23.931Z,58.50
2022-07-28T22:14:20.806Z,58.00
2022-07-28T22:17:17.654Z,57.40
2022-07-28T22:20:14.606Z,57.70
2022-07-28T22:23:28.370Z,57.00
2022-07-28T22:26:26.236Z,57.80
2022-07-28T22:29:23.080Z,58.30
2022-07-28T22:32:27.013Z,57.20
2022-07-28T22:35:26.753Z,57.70
2022-07-28T22:38:23.907Z,58.50
2022-07-28T22:41:21.521Z,56.30
2022-07-28T22:44:18.812Z,57.20
2022-07-28T22:47:16.083Z,58.10
2022-07-28T22:50:13.017Z,57.20
2022-07-28T22:53:09.932Z,57.50
2022-07-28T22:56:09.290Z,56.60
2022-07-28T22:59:07.378Z,58.30
2022-07-28T23:02:04.224Z,56.50
2022-07-28T23:05:01.508Z,57.60
2022-07-28T23:07:58.983Z,56.70
2022-07-28T23:10:55.969Z,57.60
2022-07-28T23:13:52.815Z,57.80
2022-07-28T23:16:49.860Z,59.10
2022-07-28T23:19:46.841Z,59.10
2022-07-28T23:22:43.753Z,59.50
2022-07-28T23:25:43.091Z,58.20
2022-07-28T23:28:39.983Z,59.90
2022-07-28T23:31:36.932Z,57.00
2022-07-28T23:34:33.807Z,57.60
2022-07-28T23:37:30.636Z,59.80
2022-07-28T23:40:27.667Z,60.60
2022-07-28T23:43:24.501Z,60.00
2022-07-28T23:46:21.793Z,60.90
2022-07-28T23:49:19.224Z,59.60
2022-07-28T23:52:16.126Z,61.00
2022-07-28T23:55:12.979Z,61.20
2022-07-28T23:58:09.824Z,61.70
